Terminal Aerodrome Forecast
Issued by NWS Cleveland, OH

Home | Current Version | Previous Version | Graphics & Text | Print | Product List | Glossary On
Versions: 1 2 3 4 5 6 7 8 9 10 11 12 13 14 15 16
000
FTUS41 KCLE 221406 AAA
TAFYNG
TAF AMD
KYNG 221406Z 2214/2312 27011KT 3SM -TSRA OVC012CB
      TEMPO 2214/2215 VRB25G35KT 1/2SM TSRA BKN007CB
     FM221600 25011KT 6SM HZ VCSH SCT020 BKN040
     FM230200 23005KT 6SM HZ VCSH SCT045 BKN100
     FM230700 32002KT 4SM BR SCT010=

USA.gov is the U.S. government's official web portal to all federal, state and local government web resources and services.